sensor_id;sensor_type;location;lat;lon;timestamp;pressure;altitude;pressure_sealevel;temperature;humidity
6134;BME280;3098;42.678;23.364;2023-03-24T00:01:21;94967.16;;;6.45;100.00
6134;BME280;3098;42.678;23.364;2023-03-24T00:03:49;95007.56;;;6.64;100.00
6134;BME280;3098;42.678;23.364;2023-03-24T00:06:17;95024.09;;;6.69;100.00
6134;BME280;3098;42.678;23.364;2023-03-24T00:08:47;94999.31;;;6.47;100.00
6134;BME280;3098;42.678;23.364;2023-03-24T00:11:14;95030.25;;;6.60;100.00
6134;BME280;3098;42.678;23.364;2023-03-24T00:13:43;95029.69;;;6.63;100.00
6134;BME280;3098;42.678;23.364;2023-03-24T00:16:15;95004.03;;;6.45;100.00
6134;BME280;3098;42.678;23.364;2023-03-24T00:18:44;94997.16;;;6.49;100.00
6134;BME280;3098;42.678;23.364;2023-03-24T00:21:19;95004.09;;;6.40;100.00
6134;BME280;3098;42.678;23.364;2023-03-24T00:23:49;94991.41;;;6.18;100.00
6134;BME280;3098;42.678;23.364;2023-03-24T00:26:19;95038.44;;;6.29;100.00
6134;BME280;3098;42.678;23.364;2023-03-24T00:28:47;95035.72;;;6.40;100.00
6134;BME280;3098;42.678;23.364;2023-03-24T00:31:16;95036.50;;;6.40;100.00
6134;BME280;3098;42.678;23.364;2023-03-24T00:33:44;94972.56;;;6.06;100.00
6134;BME280;3098;42.678;23.364;2023-03-24T00:36:16;94994.03;;;6.18;100.00
6134;BME280;3098;42.678;23.364;2023-03-24T00:38:46;95035.22;;;6.38;100.00
6134;BME280;3098;42.678;23.364;2023-03-24T00:41:14;94955.16;;;5.76;100.00
6134;BME280;3098;42.678;23.364;2023-03-24T00:43:44;94992.88;;;6.00;100.00
6134;BME280;3098;42.678;23.364;2023-03-24T00:46:13;95006.69;;;6.16;100.00
6134;BME280;3098;42.678;23.364;2023-03-24T00:48:51;95023.25;;;6.21;100.00
6134;BME280;3098;42.678;23.364;2023-03-24T00:51:23;95019.78;;;6.26;100.00
6134;BME280;3098;42.678;23.364;2023-03-24T00:53:51;94986.63;;;5.91;100.00
6134;BME280;3098;42.678;23.364;2023-03-24T00:56:23;95020.63;;;6.16;100.00
6134;BME280;3098;42.678;23.364;2023-03-24T00:58:51;94966.66;;;5.85;100.00
6134;BME280;3098;42.678;23.364;2023-03-24T01:01:19;95018.28;;;6.15;100.00
6134;BME280;3098;42.678;23.364;2023-03-24T01:03:47;94983.50;;;5.89;100.00
6134;BME280;3098;42.678;23.364;2023-03-24T01:06:16;95023.38;;;6.06;100.00
6134;BME280;3098;42.678;23.364;2023-03-24T01:08:47;95025.22;;;6.06;100.00
6134;BME280;3098;42.678;23.364;2023-03-24T01:11:16;95016.66;;;5.90;100.00
6134;BME280;3098;42.678;23.364;2023-03-24T01:13:44;94999.91;;;5.71;100.00
6134;BME280;3098;42.678;23.364;2023-03-24T01:16:10;95025.97;;;5.72;100.00
6134;BME280;3098;42.678;23.364;2023-03-24T01:18:38;95021.44;;;5.78;100.00
6134;BME280;3098;42.678;23.364;2023-03-24T01:21:07;95025.25;;;5.62;100.00
6134;BME280;3098;42.678;23.364;2023-03-24T01:23:36;95013.66;;;5.63;100.00
6134;BME280;3098;42.678;23.364;2023-03-24T01:26:05;94941.38;;;5.11;100.00
6134;BME280;3098;42.678;23.364;2023-03-24T01:28:35;95011.53;;;5.65;100.00
6134;BME280;3098;42.678;23.364;2023-03-24T01:31:06;95018.13;;;5.67;100.00
6134;BME280;3098;42.678;23.364;2023-03-24T01:33:33;94999.19;;;5.60;100.00
6134;BME280;3098;42.678;23.364;2023-03-24T01:36:00;94983.28;;;5.42;100.00
6134;BME280;3098;42.678;23.364;2023-03-24T01:38:28;95000.59;;;5.48;100.00
6134;BME280;3098;42.678;23.364;2023-03-24T01:40:56;94978.59;;;5.34;100.00
6134;BME280;3098;42.678;23.364;2023-03-24T01:43:24;95018.72;;;5.54;100.00
6134;BME280;3098;42.678;23.364;2023-03-24T01:46:15;95012.41;;;5.55;100.00
6134;BME280;3098;42.678;23.364;2023-03-24T01:48:49;95011.69;;;5.40;100.00
6134;BME280;3098;42.678;23.364;2023-03-24T01:51:21;95018.00;;;5.44;100.00
6134;BME280;3098;42.678;23.364;2023-03-24T01:53:52;95023.00;;;5.40;100.00
6134;BME280;3098;42.678;23.364;2023-03-24T01:56:20;94957.53;;;4.90;100.00
6134;BME280;3098;42.678;23.364;2023-03-24T01:58:52;95020.91;;;5.37;100.00
6134;BME280;3098;42.678;23.364;2023-03-24T02:01:22;95024.63;;;5.36;100.00
6134;BME280;3098;42.678;23.364;2023-03-24T02:03:51;95027.25;;;5.31;100.00
6134;BME280;3098;42.678;23.364;2023-03-24T02:06:18;94838.38;;;4.12;100.00
6134;BME280;3098;42.678;23.364;2023-03-24T02:08:50;95015.00;;;5.11;100.00
6134;BME280;3098;42.678;23.364;2023-03-24T02:11:21;95033.88;;;5.23;100.00
6134;BME280;3098;42.678;23.364;2023-03-24T02:13:48;94987.25;;;4.90;100.00
6134;BME280;3098;42.678;23.364;2023-03-24T02:16:30;95026.59;;;5.10;100.00
6134;BME280;3098;42.678;23.364;2023-03-24T02:19:26;95028.16;;;5.06;100.00
6134;BME280;3098;42.678;23.364;2023-03-24T02:28:23;95037.59;;;5.17;100.00
6134;BME280;3098;42.678;23.364;2023-03-24T02:31:15;95040.50;;;5.16;100.00
6134;BME280;3098;42.678;23.364;2023-03-24T02:34:06;95041.78;;;5.18;100.00
6134;BME280;3098;42.678;23.364;2023-03-24T02:36:58;95038.91;;;5.15;100.00
6134;BME280;3098;42.678;23.364;2023-03-24T02:39:54;95036.03;;;5.11;100.00
6134;BME280;3098;42.678;23.364;2023-03-24T02:42:31;95011.09;;;5.04;100.00
6134;BME280;3098;42.678;23.364;2023-03-24T02:45:15;94988.13;;;4.71;100.00
6134;BME280;3098;42.678;23.364;2023-03-24T02:47:57;95022.75;;;4.88;100.00
6134;BME280;3098;42.678;23.364;2023-03-24T02:50:33;94986.25;;;4.71;100.00
6134;BME280;3098;42.678;23.364;2023-03-24T02:53:07;94920.75;;;4.21;100.00
6134;BME280;3098;42.678;23.364;2023-03-24T02:55:42;94995.47;;;4.63;100.00
6134;BME280;3098;42.678;23.364;2023-03-24T02:58:14;94995.47;;;4.63;100.00
6134;BME280;3098;42.678;23.364;2023-03-24T03:00:46;95013.56;;;4.75;100.00
6134;BME280;3098;42.678;23.364;2023-03-24T03:03:18;94993.91;;;4.57;100.00
6134;BME280;3098;42.678;23.364;2023-03-24T03:05:51;94980.28;;;4.55;100.00
6134;BME280;3098;42.678;23.364;2023-03-24T03:08:23;94965.84;;;4.53;100.00
6134;BME280;3098;42.678;23.364;2023-03-24T03:10:55;94971.88;;;4.48;100.00
6134;BME280;3098;42.678;23.364;2023-03-24T03:13:25;94995.44;;;4.79;100.00
6134;BME280;3098;42.678;23.364;2023-03-24T03:15:58;94840.59;;;3.79;100.00
6134;BME280;3098;42.678;23.364;2023-03-24T03:18:30;94890.34;;;4.10;100.00
6134;BME280;3098;42.678;23.364;2023-03-24T03:21:05;94984.16;;;4.73;100.00
6134;BME280;3098;42.678;23.364;2023-03-24T03:23:35;94964.22;;;4.57;100.00
6134;BME280;3098;42.678;23.364;2023-03-24T03:26:09;95013.75;;;4.94;100.00
6134;BME280;3098;42.678;23.364;2023-03-24T03:28:43;94986.75;;;4.78;100.00
6134;BME280;3098;42.678;23.364;2023-03-24T03:31:17;95002.19;;;4.95;100.00
6134;BME280;3098;42.678;23.364;2023-03-24T03:33:52;94979.38;;;4.85;100.00
6134;BME280;3098;42.678;23.364;2023-03-24T03:36:25;94999.84;;;4.93;100.00
6134;BME280;3098;42.678;23.364;2023-03-24T03:38:59;94960.00;;;4.66;100.00
6134;BME280;3098;42.678;23.364;2023-03-24T03:41:30;94951.56;;;4.74;100.00
6134;BME280;3098;42.678;23.364;2023-03-24T03:43:57;94968.38;;;4.78;100.00
6134;BME280;3098;42.678;23.364;2023-03-24T03:46:26;94948.72;;;4.60;100.00
6134;BME280;3098;42.678;23.364;2023-03-24T03:48:53;94997.97;;;4.94;100.00
6134;BME280;3098;42.678;23.364;2023-03-24T03:51:20;95003.00;;;4.90;100.00
6134;BME280;3098;42.678;23.364;2023-03-24T03:53:50;95003.81;;;4.91;100.00
6134;BME280;3098;42.678;23.364;2023-03-24T03:56:21;94990.94;;;4.84;100.00
6134;BME280;3098;42.678;23.364;2023-03-24T03:58:50;94974.66;;;4.82;100.00
6134;BME280;3098;42.678;23.364;2023-03-24T04:01:20;95001.13;;;5.01;100.00
6134;BME280;3098;42.678;23.364;2023-03-24T04:04:02;94838.44;;;3.86;100.00
6134;BME280;3098;42.678;23.364;2023-03-24T04:06:36;94986.25;;;4.76;100.00
6134;BME280;3098;42.678;23.364;2023-03-24T04:09:18;94956.13;;;4.48;100.00
6134;BME280;3098;42.678;23.364;2023-03-24T04:15:07;94954.09;;;4.30;100.00
6134;BME280;3098;42.678;23.364;2023-03-24T04:17:57;94975.88;;;4.36;100.00
6134;BME280;3098;42.678;23.364;2023-03-24T04:20:32;95023.59;;;4.58;100.00
6134;BME280;3098;42.678;23.364;2023-03-24T04:23:06;95013.63;;;4.55;100.00
6134;BME280;3098;42.678;23.364;2023-03-24T04:25:44;95019.69;;;4.50;100.00
6134;BME280;3098;42.678;23.364;2023-03-24T04:28:23;94995.06;;;4.31;100.00
6134;BME280;3098;42.678;23.364;2023-03-24T04:30:57;95026.28;;;4.38;100.00
6134;BME280;3098;42.678;23.364;2023-03-24T04:33:36;95025.75;;;4.41;100.00
6134;BME280;3098;42.678;23.364;2023-03-24T04:36:08;95017.34;;;4.44;100.00
6134;BME280;3098;42.678;23.364;2023-03-24T04:38:44;95022.59;;;4.44;100.00
6134;BME280;3098;42.678;23.364;2023-03-24T04:41:14;94988.50;;;4.24;100.00
6134;BME280;3098;42.678;23.364;2023-03-24T04:43:42;95025.75;;;4.51;100.00
6134;BME280;3098;42.678;23.364;2023-03-24T04:46:13;95012.63;;;4.36;100.00
6134;BME280;3098;42.678;23.364;2023-03-24T04:48:43;95030.94;;;4.61;100.00
6134;BME280;3098;42.678;23.364;2023-03-24T04:51:13;95016.00;;;4.51;100.00
6134;BME280;3098;42.678;23.364;2023-03-24T04:53:40;95024.91;;;4.60;100.00
6134;BME280;3098;42.678;23.364;2023-03-24T04:56:25;95042.22;;;4.67;100.00
6134;BME280;3098;42.678;23.364;2023-03-24T04:58:54;94943.38;;;4.01;100.00
6134;BME280;3098;42.678;23.364;2023-03-24T05:01:25;95043.53;;;4.69;100.00
6134;BME280;3098;42.678;23.364;2023-03-24T05:03:54;95014.19;;;4.47;100.00
6134;BME280;3098;42.678;23.364;2023-03-24T05:06:20;95028.84;;;4.63;100.00
6134;BME280;3098;42.678;23.364;2023-03-24T05:08:48;95034.63;;;4.70;100.00
6134;BME280;3098;42.678;23.364;2023-03-24T05:11:17;94979.53;;;4.35;100.00
6134;BME280;3098;42.678;23.364;2023-03-24T05:13:45;95004.66;;;4.66;100.00
6134;BME280;3098;42.678;23.364;2023-03-24T05:16:12;95002.56;;;4.63;100.00
6134;BME280;3098;42.678;23.364;2023-03-24T05:18:41;94980.31;;;4.45;100.00
6134;BME280;3098;42.678;23.364;2023-03-24T05:21:08;95045.81;;;5.01;100.00
6134;BME280;3098;42.678;23.364;2023-03-24T05:23:36;95048.16;;;5.02;100.00
6134;BME280;3098;42.678;23.364;2023-03-24T05:26:03;95051.25;;;5.14;100.00
6134;BME280;3098;42.678;23.364;2023-03-24T05:28:30;95043.34;;;5.19;100.00
6134;BME280;3098;42.678;23.364;2023-03-24T05:30:57;95044.44;;;5.13;100.00
6134;BME280;3098;42.678;23.364;2023-03-24T05:33:25;95038.13;;;5.14;100.00
6134;BME280;3098;42.678;23.364;2023-03-24T05:35:54;95045.19;;;6.12;100.00
6134;BME280;3098;42.678;23.364;2023-03-24T05:38:21;95054.28;;;8.04;100.00
6134;BME280;3098;42.678;23.364;2023-03-24T05:40:48;95039.63;;;9.44;100.00
6134;BME280;3098;42.678;23.364;2023-03-24T05:43:16;95035.19;;;10.78;100.00
6134;BME280;3098;42.678;23.364;2023-03-24T05:45:43;94962.91;;;10.42;97.36
6134;BME280;3098;42.678;23.364;2023-03-24T05:48:10;95002.53;;;11.90;91.85
6134;BME280;3098;42.678;23.364;2023-03-24T05:50:38;95015.25;;;13.91;86.55
6134;BME280;3098;42.678;23.364;2023-03-24T05:53:06;94799.56;;;14.10;69.32
6134;BME280;3098;42.678;23.364;2023-03-24T05:55:34;95032.97;;;17.14;58.99
6134;BME280;3098;42.678;23.364;2023-03-24T05:58:01;95032.66;;;16.72;56.21
6134;BME280;3098;42.678;23.364;2023-03-24T06:00:29;95011.44;;;16.51;55.38
6134;BME280;3098;42.678;23.364;2023-03-24T06:02:58;95038.09;;;19.19;48.94
6134;BME280;3098;42.678;23.364;2023-03-24T06:05:26;94996.22;;;19.67;43.00
6134;BME280;3098;42.678;23.364;2023-03-24T06:07:53;95038.19;;;18.23;45.52
6134;BME280;3098;42.678;23.364;2023-03-24T06:10:24;94995.16;;;17.66;47.31
6134;BME280;3098;42.678;23.364;2023-03-24T06:12:52;95034.19;;;15.53;50.53
6134;BME280;3098;42.678;23.364;2023-03-24T06:15:20;95042.63;;;15.92;53.78
6134;BME280;3098;42.678;23.364;2023-03-24T06:17:48;95011.84;;;17.94;46.94
6134;BME280;3098;42.678;23.364;2023-03-24T06:20:19;95041.16;;;18.18;44.80
6134;BME280;3098;42.678;23.364;2023-03-24T06:22:46;95031.84;;;17.31;47.97
6134;BME280;3098;42.678;23.364;2023-03-24T06:25:15;95016.50;;;18.32;45.22
6134;BME280;3098;42.678;23.364;2023-03-24T06:27:46;94990.91;;;18.38;44.29
6134;BME280;3098;42.678;23.364;2023-03-24T06:30:14;95027.69;;;18.53;43.96
6134;BME280;3098;42.678;23.364;2023-03-24T06:32:42;95036.81;;;19.55;42.36
6134;BME280;3098;42.678;23.364;2023-03-24T06:35:11;95044.63;;;18.57;44.27
6134;BME280;3098;42.678;23.364;2023-03-24T06:37:39;95033.06;;;17.99;44.38
6134;BME280;3098;42.678;23.364;2023-03-24T06:40:08;94974.22;;;18.67;44.04
6134;BME280;3098;42.678;23.364;2023-03-24T06:42:38;95049.44;;;18.86;43.33
6134;BME280;3098;42.678;23.364;2023-03-24T06:45:08;95022.56;;;15.86;47.98
6134;BME280;3098;42.678;23.364;2023-03-24T06:47:36;95053.47;;;14.90;52.18
6134;BME280;3098;42.678;23.364;2023-03-24T06:50:04;94989.66;;;14.31;54.68
6134;BME280;3098;42.678;23.364;2023-03-24T06:52:31;95032.06;;;16.79;50.57
6134;BME280;3098;42.678;23.364;2023-03-24T06:54:58;95008.56;;;17.66;46.81
6134;BME280;3098;42.678;23.364;2023-03-24T06:57:25;95044.16;;;19.13;43.75
6134;BME280;3098;42.678;23.364;2023-03-24T06:59:53;95051.06;;;21.04;39.25
6134;BME280;3098;42.678;23.364;2023-03-24T07:02:22;95022.41;;;22.39;36.28
6134;BME280;3098;42.678;23.364;2023-03-24T07:04:49;95030.03;;;22.22;35.60
6134;BME280;3098;42.678;23.364;2023-03-24T07:07:18;95046.72;;;20.93;37.42
6134;BME280;3098;42.678;23.364;2023-03-24T07:09:47;95057.97;;;19.57;40.45
6134;BME280;3098;42.678;23.364;2023-03-24T07:12:16;95035.47;;;19.00;41.57
6134;BME280;3098;42.678;23.364;2023-03-24T07:14:43;95028.53;;;19.93;40.64
6134;BME280;3098;42.678;23.364;2023-03-24T07:17:10;95013.91;;;20.50;39.48
6134;BME280;3098;42.678;23.364;2023-03-24T07:19:39;95066.38;;;22.28;36.43
6134;BME280;3098;42.678;23.364;2023-03-24T07:22:09;94986.81;;;21.10;37.34
6134;BME280;3098;42.678;23.364;2023-03-24T07:24:36;94971.03;;;20.72;37.49
6134;BME280;3098;42.678;23.364;2023-03-24T07:27:07;95063.31;;;20.32;40.10
6134;BME280;3098;42.678;23.364;2023-03-24T07:29:34;94962.63;;;20.80;37.55
6134;BME280;3098;42.678;23.364;2023-03-24T07:32:04;94962.78;;;20.98;37.38
6134;BME280;3098;42.678;23.364;2023-03-24T07:34:35;95066.19;;;21.53;36.97
6134;BME280;3098;42.678;23.364;2023-03-24T07:37:05;95064.88;;;22.38;35.76
6134;BME280;3098;42.678;23.364;2023-03-24T07:39:35;95056.97;;;20.47;38.45
6134;BME280;3098;42.678;23.364;2023-03-24T07:42:03;95061.94;;;18.98;41.05
6134;BME280;3098;42.678;23.364;2023-03-24T07:44:34;95023.47;;;20.18;40.31
6134;BME280;3098;42.678;23.364;2023-03-24T07:47:02;95056.97;;;21.13;38.45
6134;BME280;3098;42.678;23.364;2023-03-24T07:49:32;95054.50;;;22.47;35.99
6134;BME280;3098;42.678;23.364;2023-03-24T07:52:02;95022.28;;;23.07;34.04
6134;BME280;3098;42.678;23.364;2023-03-24T07:54:36;94997.91;;;22.89;34.30
6134;BME280;3098;42.678;23.364;2023-03-24T07:57:03;95057.09;;;22.26;35.70
6134;BME280;3098;42.678;23.364;2023-03-24T07:59:37;95038.47;;;20.79;37.59
6134;BME280;3098;42.678;23.364;2023-03-24T08:02:11;94983.47;;;21.24;36.69
6134;BME280;3098;42.678;23.364;2023-03-24T08:04:42;95038.31;;;19.79;39.29
6134;BME280;3098;42.678;23.364;2023-03-24T08:07:12;95034.78;;;20.60;39.82
6134;BME280;3098;42.678;23.364;2023-03-24T08:09:42;95030.28;;;19.11;41.82
6134;BME280;3098;42.678;23.364;2023-03-24T08:12:10;94958.16;;;20.58;37.98
6134;BME280;3098;42.678;23.364;2023-03-24T08:14:37;95036.34;;;22.51;35.82
6134;BME280;3098;42.678;23.364;2023-03-24T08:17:05;94998.72;;;23.32;33.99
6134;BME280;3098;42.678;23.364;2023-03-24T08:19:32;94917.44;;;22.55;34.42
6134;BME280;3098;42.678;23.364;2023-03-24T08:22:04;95034.19;;;22.81;35.30
6134;BME280;3098;42.678;23.364;2023-03-24T08:24:32;94968.81;;;20.14;38.01
6134;BME280;3098;42.678;23.364;2023-03-24T08:27:02;95016.94;;;21.19;38.19
6134;BME280;3098;42.678;23.364;2023-03-24T08:29:31;94996.91;;;20.46;39.14
6134;BME280;3098;42.678;23.364;2023-03-24T08:31:59;95025.34;;;20.44;38.99
6134;BME280;3098;42.678;23.364;2023-03-24T08:34:27;94911.97;;;20.23;38.63
6134;BME280;3098;42.678;23.364;2023-03-24T08:36:56;94839.69;;;19.91;38.08
6134;BME280;3098;42.678;23.364;2023-03-24T08:39:26;95002.66;;;21.66;36.71
6134;BME280;3098;42.678;23.364;2023-03-24T08:41:57;95016.81;;;22.03;35.86
6134;BME280;3098;42.678;23.364;2023-03-24T08:44:26;94960.78;;;22.94;34.25
6134;BME280;3098;42.678;23.364;2023-03-24T08:46:53;95004.56;;;24.95;32.15
6134;BME280;3098;42.678;23.364;2023-03-24T08:49:20;95001.47;;;23.47;33.70
6134;BME280;3098;42.678;23.364;2023-03-24T08:51:48;94988.41;;;22.30;34.85
6134;BME280;3098;42.678;23.364;2023-03-24T08:54:15;94868.00;;;22.44;34.99
6134;BME280;3098;42.678;23.364;2023-03-24T08:56:42;94917.81;;;22.57;34.36
6134;BME280;3098;42.678;23.364;2023-03-24T08:59:11;94853.63;;;19.67;38.39
6134;BME280;3098;42.678;23.364;2023-03-24T09:01:40;94983.75;;;21.11;38.74
6134;BME280;3098;42.678;23.364;2023-03-24T09:04:07;94986.81;;;21.61;36.73
6134;BME280;3098;42.678;23.364;2023-03-24T09:06:34;94974.47;;;20.72;38.63
6134;BME280;3098;42.678;23.364;2023-03-24T09:09:01;94968.00;;;22.44;36.29
6134;BME280;3098;42.678;23.364;2023-03-24T09:11:29;94966.97;;;23.96;33.63
6134;BME280;3098;42.678;23.364;2023-03-24T09:13:56;94920.66;;;23.38;33.86
6134;BME280;3098;42.678;23.364;2023-03-24T09:16:23;94966.25;;;23.61;33.57
6134;BME280;3098;42.678;23.364;2023-03-24T09:18:52;94965.63;;;22.24;35.49
6134;BME280;3098;42.678;23.364;2023-03-24T09:21:20;94907.59;;;21.97;35.49
6134;BME280;3098;42.678;23.364;2023-03-24T09:23:47;94916.72;;;24.72;31.61
6134;BME280;3098;42.678;23.364;2023-03-24T09:26:15;94791.59;;;24.04;31.59
6134;BME280;3098;42.678;23.364;2023-03-24T09:28:42;94952.38;;;24.67;32.26
6134;BME280;3098;42.678;23.364;2023-03-24T09:31:09;94911.56;;;24.91;31.41
6134;BME280;3098;42.678;23.364;2023-03-24T09:33:36;94922.31;;;24.33;31.58
6134;BME280;3098;42.678;23.364;2023-03-24T09:36:06;94935.00;;;21.96;34.73
6134;BME280;3098;42.678;23.364;2023-03-24T09:38:33;94942.63;;;23.05;34.59
6134;BME280;3098;42.678;23.364;2023-03-24T09:41:02;94907.53;;;25.10;31.24
6134;BME280;3098;42.678;23.364;2023-03-24T09:43:36;94805.38;;;24.34;30.57
6134;BME280;3098;42.678;23.364;2023-03-24T09:46:08;94931.06;;;22.90;34.72
6134;BME280;3098;42.678;23.364;2023-03-24T09:48:40;94906.50;;;21.37;36.16
6134;BME280;3098;42.678;23.364;2023-03-24T09:51:12;94927.63;;;21.89;35.39
6134;BME280;3098;42.678;23.364;2023-03-24T09:53:45;94854.78;;;22.03;35.18
6134;BME280;3098;42.678;23.364;2023-03-24T09:56:16;94888.44;;;22.38;35.43
6134;BME280;3098;42.678;23.364;2023-03-24T09:58:47;94912.13;;;22.97;35.27
6134;BME280;3098;42.678;23.364;2023-03-24T10:01:16;94909.47;;;24.54;32.09
6134;BME280;3098;42.678;23.364;2023-03-24T10:03:44;94874.19;;;22.51;33.86
6134;BME280;3098;42.678;23.364;2023-03-24T10:06:28;94825.50;;;23.47;33.05
6134;BME280;3098;42.678;23.364;2023-03-24T10:09:07;94903.94;;;23.75;32.61
6134;BME280;3098;42.678;23.364;2023-03-24T10:11:44;94621.44;;;20.79;34.45
6134;BME280;3098;42.678;23.364;2023-03-24T10:14:22;94589.59;;;19.72;35.90
6134;BME280;3098;42.678;23.364;2023-03-24T10:16:57;94896.66;;;23.26;34.55
6134;BME280;3098;42.678;23.364;2023-03-24T10:19:37;94887.38;;;22.88;34.67
6134;BME280;3098;42.678;23.364;2023-03-24T10:22:16;94761.44;;;22.13;34.18
6134;BME280;3098;42.678;23.364;2023-03-24T10:24:52;94902.94;;;21.29;36.19
6134;BME280;3098;42.678;23.364;2023-03-24T10:27:25;94899.47;;;21.29;36.00
6134;BME280;3098;42.678;23.364;2023-03-24T10:29:58;94688.47;;;20.84;35.52
6134;BME280;3098;42.678;23.364;2023-03-24T10:32:29;94681.53;;;21.91;34.01
6134;BME280;3098;42.678;23.364;2023-03-24T10:35:01;94886.13;;;23.81;32.49
6134;BME280;3098;42.678;23.364;2023-03-24T10:37:36;94753.03;;;21.32;34.16
6134;BME280;3098;42.678;23.364;2023-03-24T10:40:13;94687.09;;;21.18;34.58
6134;BME280;3098;42.678;23.364;2023-03-24T10:42:42;94776.00;;;20.50;36.41
6134;BME280;3098;42.678;23.364;2023-03-24T10:45:13;94884.75;;;21.15;36.95
6134;BME280;3098;42.678;23.364;2023-03-24T10:47:42;94883.19;;;21.76;36.22
6134;BME280;3098;42.678;23.364;2023-03-24T10:50:10;94853.22;;;21.99;36.41
6134;BME280;3098;42.678;23.364;2023-03-24T10:52:40;94874.56;;;22.43;34.83
6134;BME280;3098;42.678;23.364;2023-03-24T10:55:13;94875.88;;;21.84;36.72
6134;BME280;3098;42.678;23.364;2023-03-24T10:57:44;94741.03;;;19.73;39.23
6134;BME280;3098;42.678;23.364;2023-03-24T11:00:20;94871.97;;;21.67;38.18
6134;BME280;3098;42.678;23.364;2023-03-24T11:02:54;94874.16;;;21.44;37.23
6134;BME280;3098;42.678;23.364;2023-03-24T11:05:27;94868.34;;;21.42;36.25
6134;BME280;3098;42.678;23.364;2023-03-24T11:08:16;94864.69;;;21.82;35.46
6134;BME280;3098;42.678;23.364;2023-03-24T11:10:45;94858.97;;;21.22;35.51
6134;BME280;3098;42.678;23.364;2023-03-24T11:13:16;94705.25;;;20.56;34.53
6134;BME280;3098;42.678;23.364;2023-03-24T11:15:55;94784.84;;;21.01;35.39
6134;BME280;3098;42.678;23.364;2023-03-24T11:18:23;94714.84;;;21.19;34.33
6134;BME280;3098;42.678;23.364;2023-03-24T11:20:53;94671.78;;;21.37;33.98
6134;BME280;3098;42.678;23.364;2023-03-24T11:23:29;94845.66;;;22.64;32.55
6134;BME280;3098;42.678;23.364;2023-03-24T11:26:08;94776.09;;;22.29;32.09
6134;BME280;3098;42.678;23.364;2023-03-24T11:28:40;94823.97;;;22.32;32.79
6134;BME280;3098;42.678;23.364;2023-03-24T11:31:10;94796.72;;;21.58;33.95
6134;BME280;3098;42.678;23.364;2023-03-24T11:33:45;94753.03;;;21.32;33.72
6134;BME280;3098;42.678;23.364;2023-03-24T11:36:43;94811.06;;;21.73;33.67
6134;BME280;3098;42.678;23.364;2023-03-24T11:39:17;94834.56;;;21.72;34.23
6134;BME280;3098;42.678;23.364;2023-03-24T11:41:58;94679.94;;;21.65;33.48
6134;BME280;3098;42.678;23.364;2023-03-24T11:44:30;94788.88;;;22.50;32.79
6134;BME280;3098;42.678;23.364;2023-03-24T11:47:00;94796.03;;;21.75;32.55
6134;BME280;3098;42.678;23.364;2023-03-24T11:49:31;94747.91;;;22.06;31.16
6134;BME280;3098;42.678;23.364;2023-03-24T11:52:01;94745.56;;;23.03;29.46
6134;BME280;3098;42.678;23.364;2023-03-24T11:54:34;94759.91;;;22.89;30.82
6134;BME280;3098;42.678;23.364;2023-03-24T11:57:04;94793.81;;;21.99;30.68
6134;BME280;3098;42.678;23.364;2023-03-24T11:59:36;94740.41;;;21.50;31.46
6134;BME280;3098;42.678;23.364;2023-03-24T12:02:16;94721.72;;;20.44;32.56
6134;BME280;3098;42.678;23.364;2023-03-24T12:05:04;94739.59;;;20.23;32.99
6134;BME280;3098;42.678;23.364;2023-03-24T12:07:52;94601.53;;;19.78;32.69
6134;BME280;3098;42.678;23.364;2023-03-24T12:10:35;94777.56;;;21.05;32.38
6134;BME280;3098;42.678;23.364;2023-03-24T12:13:08;94700.63;;;21.26;31.52
6134;BME280;3098;42.678;23.364;2023-03-24T12:15:43;94591.78;;;20.79;30.89
6134;BME280;3098;42.678;23.364;2023-03-24T12:18:34;94726.91;;;21.46;30.99
6134;BME280;3098;42.678;23.364;2023-03-24T12:21:10;94775.13;;;21.58;31.00
6134;BME280;3098;42.678;23.364;2023-03-24T12:23:50;94715.09;;;20.93;30.67
6134;BME280;3098;42.678;23.364;2023-03-24T12:26:25;94604.69;;;20.35;30.80
6134;BME280;3098;42.678;23.364;2023-03-24T12:29:34;94604.69;;;20.42;31.37
6134;BME280;3098;42.678;23.364;2023-03-24T12:32:34;94707.78;;;21.00;31.11
6134;BME280;3098;42.678;23.364;2023-03-24T12:35:37;94640.53;;;20.49;31.61
6134;BME280;3098;42.678;23.364;2023-03-24T12:41:13;94582.88;;;19.48;30.56
6134;BME280;3098;42.678;23.364;2023-03-24T12:43:52;94659.47;;;20.60;30.21
6134;BME280;3098;42.678;23.364;2023-03-24T12:46:38;94688.44;;;20.81;30.29
6134;BME280;3098;42.678;23.364;2023-03-24T12:49:28;94719.13;;;20.62;29.79
6134;BME280;3098;42.678;23.364;2023-03-24T12:52:07;94500.63;;;19.44;29.74
6134;BME280;3098;42.678;23.364;2023-03-24T12:54:46;94607.44;;;20.45;28.89
6134;BME280;3098;42.678;23.364;2023-03-24T12:57:17;94566.25;;;20.48;27.06
6134;BME280;3098;42.678;23.364;2023-03-24T12:59:52;94652.47;;;21.35;27.29
6134;BME280;3098;42.678;23.364;2023-03-24T13:02:26;94636.88;;;20.89;28.42
6134;BME280;3098;42.678;23.364;2023-03-24T13:04:59;94653.94;;;21.07;28.49
6134;BME280;3098;42.678;23.364;2023-03-24T13:07:31;94634.88;;;20.72;27.54
6134;BME280;3098;42.678;23.364;2023-03-24T13:10:06;94692.38;;;21.01;27.14
6134;BME280;3098;42.678;23.364;2023-03-24T13:12:42;94690.47;;;21.01;26.74
6134;BME280;3098;42.678;23.364;2023-03-24T13:15:17;94694.66;;;20.92;26.49
6134;BME280;3098;42.678;23.364;2023-03-24T13:17:49;94701.56;;;20.89;26.36
6134;BME280;3098;42.678;23.364;2023-03-24T13:20:22;94527.47;;;19.95;26.17
6134;BME280;3098;42.678;23.364;2023-03-24T13:22:51;94635.66;;;20.73;26.69
6134;BME280;3098;42.678;23.364;2023-03-24T13:25:27;94681.75;;;21.22;26.92
6134;BME280;3098;42.678;23.364;2023-03-24T13:27:59;94641.28;;;21.22;26.87
6134;BME280;3098;42.678;23.364;2023-03-24T13:30:34;94679.84;;;21.33;27.16
6134;BME280;3098;42.678;23.364;2023-03-24T13:33:06;94656.25;;;21.09;27.52
6134;BME280;3098;42.678;23.364;2023-03-24T13:35:49;94675.28;;;20.72;28.13
6134;BME280;3098;42.678;23.364;2023-03-24T13:38:21;94672.50;;;20.51;28.34
6134;BME280;3098;42.678;23.364;2023-03-24T13:40:54;94615.22;;;20.03;28.00
6134;BME280;3098;42.678;23.364;2023-03-24T13:43:23;94626.47;;;20.19;28.44
6134;BME280;3098;42.678;23.364;2023-03-24T13:45:58;94659.88;;;20.69;28.18
6134;BME280;3098;42.678;23.364;2023-03-24T13:48:34;94656.91;;;20.88;27.36